Terminal Aerodrome Forecast
Issued by NWS

Current Version | Previous Version | Text Only | Print | Product List | Glossary Off
Versions: 1 2 3 4 5 6 7 8 9 10 11 12 13 14 15 16 17 18 19 20 21 22

000
FTUS41 KPBZ 271400 AAB
TAFMGW
TAF AMD
KMGW 271458Z 2715/2812 21005KT P6SM SCT020 BKN040
     FM272000 23008KT P6SM VCSH BKN035
      TEMPO 2721/2724 3SM -TSRA OVC025CB
     FM280600 24005KT P6SM VCSH BKN020=

USA.gov is the U.S. government's official web portal to all federal, state and local government web resources and services.